createdAt,value
2023-05-11T00:01:56.866Z,13.51
2023-05-11T00:04:23.754Z,13.47
2023-05-11T00:06:50.573Z,13.37
2023-05-11T00:09:17.346Z,13.33
2023-05-11T00:11:44.068Z,13.30
2023-05-11T00:14:10.967Z,13.29
2023-05-11T00:16:37.725Z,13.27
2023-05-11T00:19:04.812Z,13.21
2023-05-11T00:21:32.326Z,13.18
2023-05-11T00:23:59.088Z,13.19
2023-05-11T00:26:26.711Z,13.22
2023-05-11T00:28:53.501Z,13.18
2023-05-11T00:31:20.430Z,13.23
2023-05-11T00:33:47.290Z,13.29
2023-05-11T00:36:14.080Z,13.25
2023-05-11T00:38:41.225Z,13.26
2023-05-11T00:41:08.720Z,13.27
2023-05-11T00:43:35.495Z,13.34
2023-05-11T00:46:03.583Z,13.33
2023-05-11T00:48:30.842Z,13.26
2023-05-11T00:50:59.760Z,13.31
2023-05-11T00:53:26.898Z,13.34
2023-05-11T00:55:54.210Z,13.29
2023-05-11T00:58:21.143Z,13.34
2023-05-11T01:00:48.184Z,13.33
2023-05-11T01:03:15.714Z,13.37
2023-05-11T01:05:58.014Z,13.39
2023-05-11T01:08:51.135Z,13.34
2023-05-11T01:11:29.007Z,13.37
2023-05-11T01:14:15.622Z,13.31
2023-05-11T01:16:47.308Z,13.27
2023-05-11T01:19:35.599Z,13.23
2023-05-11T01:22:13.818Z,13.18
2023-05-11T01:24:46.564Z,13.12
2023-05-11T01:27:34.930Z,13.16
2023-05-11T01:30:31.490Z,13.16
2023-05-11T01:33:02.970Z,13.01
2023-05-11T01:35:31.419Z,13.02
2023-05-11T01:37:59.867Z,12.94
2023-05-11T01:40:29.466Z,12.93
2023-05-11T01:43:04.834Z,12.91
2023-05-11T01:45:34.666Z,12.91
2023-05-11T01:48:05.518Z,12.74
2023-05-11T01:50:33.571Z,12.63
2023-05-11T01:53:03.029Z,12.70
2023-05-11T01:55:32.164Z,12.71
2023-05-11T01:58:00.461Z,12.57
2023-05-11T02:00:27.570Z,12.49
2023-05-11T02:02:56.654Z,12.56
2023-05-11T02:05:24.986Z,12.48
2023-05-11T02:07:54.402Z,12.48
2023-05-11T02:10:25.531Z,12.51
2023-05-11T02:12:53.896Z,12.49
2023-05-11T02:15:22.349Z,12.43
2023-05-11T02:17:50.734Z,12.48
2023-05-11T02:20:18.527Z,12.41
2023-05-11T02:22:46.179Z,12.35
2023-05-11T02:25:14.016Z,12.34
2023-05-11T02:27:40.819Z,12.30
2023-05-11T02:30:11.583Z,12.28
2023-05-11T02:32:47.795Z,12.27
2023-05-11T02:35:20.643Z,12.28
2023-05-11T02:37:48.258Z,12.26
2023-05-11T02:40:24.709Z,12.29
2023-05-11T02:42:58.681Z,12.32
2023-05-11T02:45:31.348Z,12.27
2023-05-11T02:48:00.624Z,12.35
2023-05-11T02:50:30.371Z,12.42
2023-05-11T02:53:02.299Z,12.31
2023-05-11T02:55:29.775Z,12.34
2023-05-11T02:57:56.871Z,12.33
2023-05-11T03:00:23.941Z,12.36
2023-05-11T03:02:51.186Z,12.32
2023-05-11T03:05:17.993Z,12.38
2023-05-11T03:07:45.404Z,12.32
2023-05-11T03:10:12.194Z,12.29
2023-05-11T03:12:39.154Z,12.19
2023-05-11T03:15:07.673Z,12.19
2023-05-11T03:17:35.333Z,12.23
2023-05-11T03:20:04.016Z,12.27
2023-05-11T03:22:32.930Z,12.32
2023-05-11T03:25:02.593Z,12.35
2023-05-11T03:27:30.377Z,12.48
2023-05-11T03:29:58.379Z,12.45
2023-05-11T03:32:25.526Z,12.55
2023-05-11T03:34:52.573Z,12.61
2023-05-11T03:37:20.609Z,12.61
2023-05-11T03:39:51.378Z,12.71
2023-05-11T03:42:19.382Z,12.69
2023-05-11T03:44:48.346Z,12.72
2023-05-11T03:47:16.604Z,12.73
2023-05-11T03:49:44.225Z,12.81
2023-05-11T03:52:11.578Z,12.94
2023-05-11T03:54:38.466Z,12.99
2023-05-11T03:57:05.731Z,13.01
2023-05-11T03:59:32.616Z,12.95
2023-05-11T04:02:01.478Z,12.94
2023-05-11T04:04:30.446Z,12.94
2023-05-11T04:07:01.514Z,13.14
2023-05-11T04:09:28.202Z,13.22
2023-05-11T04:11:54.952Z,13.25
2023-05-11T04:14:21.777Z,13.27
2023-05-11T04:16:48.541Z,13.30
2023-05-11T04:19:16.570Z,13.35
2023-05-11T04:21:43.376Z,13.31
2023-05-11T04:24:10.264Z,13.29
2023-05-11T04:26:36.942Z,13.33
2023-05-11T04:29:03.938Z,13.39
2023-05-11T04:31:31.000Z,13.44
2023-05-11T04:33:57.952Z,13.45
2023-05-11T04:36:25.076Z,13.46
2023-05-11T04:38:53.212Z,13.48
2023-05-11T04:41:20.777Z,13.48
2023-05-11T04:43:47.510Z,13.58
2023-05-11T04:46:14.368Z,13.56
2023-05-11T04:48:41.616Z,13.56
2023-05-11T04:51:08.449Z,13.62
2023-05-11T04:53:35.280Z,13.68
2023-05-11T04:56:01.956Z,13.68
2023-05-11T04:58:28.749Z,13.83
2023-05-11T05:00:55.532Z,13.83
2023-05-11T05:03:23.006Z,13.89
2023-05-11T05:05:50.557Z,14.07
2023-05-11T05:08:18.690Z,14.01
2023-05-11T05:10:47.162Z,14.07
2023-05-11T05:13:14.254Z,14.08
2023-05-11T05:15:41.214Z,14.18
2023-05-11T05:18:08.036Z,14.10
2023-05-11T05:20:35.230Z,14.22
2023-05-11T05:23:02.401Z,14.35
2023-05-11T05:25:29.275Z,14.40
2023-05-11T05:27:55.971Z,14.54
2023-05-11T05:30:22.886Z,14.54
2023-05-11T05:32:49.733Z,14.66
2023-05-11T05:35:16.529Z,14.74
2023-05-11T05:37:43.234Z,14.82
2023-05-11T05:40:10.254Z,14.69
2023-05-11T05:42:37.166Z,14.62
2023-05-11T05:45:04.261Z,14.60
2023-05-11T05:47:31.163Z,14.67
2023-05-11T05:49:57.954Z,14.78
2023-05-11T05:52:24.939Z,14.98
2023-05-11T05:54:51.724Z,15.08
2023-05-11T05:57:18.488Z,15.30
2023-05-11T05:59:45.279Z,15.40
2023-05-11T06:02:13.471Z,15.68
2023-05-11T06:04:41.941Z,16.37
2023-05-11T06:07:09.029Z,16.62
2023-05-11T06:09:37.882Z,17.10
2023-05-11T06:12:06.240Z,17.16
2023-05-11T06:14:33.074Z,17.58
2023-05-11T06:16:59.820Z,17.81
2023-05-11T06:19:26.594Z,17.97
2023-05-11T06:21:53.326Z,17.81
2023-05-11T06:24:20.086Z,18.19
2023-05-11T06:26:46.805Z,18.28
2023-05-11T06:29:13.720Z,18.32
2023-05-11T06:31:40.648Z,18.65
2023-05-11T06:34:09.541Z,18.93
2023-05-11T06:36:36.282Z,19.62
2023-05-11T06:39:03.311Z,19.06
2023-05-11T06:41:30.094Z,18.89
2023-05-11T06:43:56.889Z,18.46
2023-05-11T06:46:23.652Z,18.91
2023-05-11T06:48:50.587Z,19.52
2023-05-11T06:51:17.431Z,19.62
2023-05-11T06:53:44.490Z,19.27
2023-05-11T06:56:11.504Z,19.57
2023-05-11T06:58:38.454Z,19.88
2023-05-11T07:01:07.773Z,20.55
2023-05-11T07:03:35.320Z,21.40
2023-05-11T07:06:02.448Z,20.91
2023-05-11T07:08:29.300Z,20.43
2023-05-11T07:10:56.300Z,20.74
2023-05-11T07:13:23.244Z,21.50
2023-05-11T07:15:50.195Z,21.91
2023-05-11T07:18:17.368Z,21.70
2023-05-11T07:20:49.855Z,21.32
2023-05-11T07:23:18.081Z,21.65
2023-05-11T07:25:44.837Z,22.04
2023-05-11T07:28:11.838Z,21.54
2023-05-11T07:30:38.553Z,21.44
2023-05-11T07:33:06.683Z,21.54
2023-05-11T07:35:33.696Z,21.81
2023-05-11T07:38:00.483Z,21.67
2023-05-11T07:40:27.305Z,21.99
2023-05-11T07:42:54.193Z,21.21
2023-05-11T07:45:20.930Z,21.64
2023-05-11T07:47:48.100Z,21.03
2023-05-11T07:50:15.935Z,20.95
2023-05-11T07:52:43.757Z,20.56
2023-05-11T07:55:10.647Z,20.73
2023-05-11T07:57:37.473Z,20.61
2023-05-11T08:00:05.980Z,21.16
2023-05-11T08:02:32.868Z,20.96
2023-05-11T08:04:59.632Z,20.49
2023-05-11T08:07:26.372Z,20.99
2023-05-11T08:09:53.214Z,20.81
2023-05-11T08:12:19.924Z,20.83
2023-05-11T08:14:46.788Z,20.79
2023-05-11T08:17:13.545Z,20.77
2023-05-11T08:19:40.441Z,21.15
2023-05-11T08:22:07.532Z,20.98
2023-05-11T08:24:34.253Z,21.20
2023-05-11T08:27:01.350Z,20.89
2023-05-11T08:29:28.220Z,21.33
2023-05-11T08:31:55.241Z,21.07
2023-05-11T08:34:23.310Z,21.13
2023-05-11T08:36:50.745Z,20.74
2023-05-11T08:39:28.541Z,20.93
2023-05-11T08:42:07.261Z,21.06
2023-05-11T08:44:35.319Z,21.24
2023-05-11T08:47:21.375Z,21.01
2023-05-11T08:49:50.348Z,21.18
2023-05-11T08:52:18.566Z,21.28
2023-05-11T08:54:46.388Z,21.49
2023-05-11T08:57:14.228Z,21.84
2023-05-11T08:59:44.370Z,21.67
2023-05-11T09:02:17.054Z,21.98
2023-05-11T09:04:48.334Z,22.21
2023-05-11T09:07:17.652Z,22.60
2023-05-11T09:09:46.333Z,22.70
2023-05-11T09:12:13.394Z,23.27
2023-05-11T09:14:40.173Z,23.52
2023-05-11T09:17:07.067Z,23.05
2023-05-11T09:19:33.964Z,23.39
2023-05-11T09:22:00.968Z,23.53
2023-05-11T09:24:29.104Z,23.76
2023-05-11T09:29:51.940Z,24.51
2023-05-11T09:32:18.943Z,24.99
2023-05-11T09:34:45.955Z,24.95
2023-05-11T09:37:18.143Z,25.05
2023-05-11T09:40:17.707Z,24.73
2023-05-11T09:42:32.300Z,25.03
2023-05-11T09:44:58.956Z,25.66
2023-05-11T09:47:27.522Z,25.72
2023-05-11T09:49:54.448Z,25.16
2023-05-11T09:52:21.429Z,24.99
2023-05-11T09:54:51.099Z,25.76
2023-05-11T09:57:29.652Z,25.67
2023-05-11T09:59:58.489Z,25.93
2023-05-11T10:02:26.549Z,26.49
2023-05-11T10:04:54.972Z,26.56
2023-05-11T10:07:27.849Z,26.50
2023-05-11T10:09:56.791Z,26.58
2023-05-11T10:12:25.822Z,26.97
2023-05-11T10:15:02.574Z,26.78
2023-05-11T10:17:33.366Z,26.37
2023-05-11T10:20:01.845Z,25.68
2023-05-11T10:22:30.938Z,25.81
2023-05-11T10:24:58.802Z,26.27
2023-05-11T10:27:26.537Z,26.75
2023-05-11T10:29:53.470Z,25.76
2023-05-11T10:32:21.319Z,26.45
2023-05-11T10:34:50.266Z,26.86
2023-05-11T10:37:17.702Z,26.27
2023-05-11T10:39:48.414Z,26.35
2023-05-11T10:42:40.894Z,26.95
2023-05-11T10:45:22.010Z,26.89
2023-05-11T10:48:10.337Z,26.79
2023-05-11T10:50:43.601Z,27.08
2023-05-11T10:53:50.071Z,27.00
2023-05-11T10:56:49.264Z,27.56
2023-05-11T10:59:25.299Z,26.70
2023-05-11T11:01:54.658Z,26.35
2023-05-11T11:04:21.538Z,27.37
2023-05-11T11:07:04.612Z,26.39
2023-05-11T11:09:50.594Z,27.20
2023-05-11T11:12:17.483Z,26.99
2023-05-11T11:14:58.618Z,26.31
2023-05-11T11:17:31.820Z,26.40
2023-05-11T11:20:01.360Z,25.57
2023-05-11T11:22:38.635Z,25.08
2023-05-11T11:25:07.768Z,25.02
2023-05-11T11:27:40.652Z,24.78
2023-05-11T11:30:22.568Z,24.32
2023-05-11T11:32:52.417Z,23.87
2023-05-11T11:35:47.327Z,23.94
2023-05-11T11:38:19.148Z,25.16
2023-05-11T11:40:51.286Z,24.99
2023-05-11T11:43:20.125Z,24.48
2023-05-11T11:45:50.989Z,24.21
2023-05-11T11:48:29.559Z,23.83
2023-05-11T11:51:11.570Z,23.64
2023-05-11T11:53:38.567Z,23.68
2023-05-11T11:56:11.368Z,23.37
2023-05-11T11:58:41.428Z,23.37
2023-05-11T12:01:09.150Z,23.13
2023-05-11T12:03:37.436Z,23.38
2023-05-11T12:06:09.798Z,23.22
2023-05-11T12:08:38.221Z,23.12
2023-05-11T12:11:06.677Z,23.24
2023-05-11T12:13:35.358Z,23.01
2023-05-11T12:16:15.114Z,23.37
2023-05-11T12:18:51.278Z,23.38
2023-05-11T12:21:22.525Z,23.82
2023-05-11T12:23:54.889Z,23.32
2023-05-11T12:26:23.754Z,23.21
2023-05-11T12:29:11.292Z,22.96
2023-05-11T12:31:43.097Z,22.87
2023-05-11T12:34:17.775Z,22.76
2023-05-11T12:36:49.974Z,22.77
2023-05-11T12:39:24.791Z,22.88
2023-05-11T12:41:55.332Z,23.00
2023-05-11T12:44:24.440Z,23.72
2023-05-11T12:46:51.980Z,24.84
2023-05-11T12:49:26.428Z,25.44
2023-05-11T12:52:00.031Z,25.73
2023-05-11T12:54:30.104Z,25.89
2023-05-11T12:56:57.538Z,25.60
2023-05-11T12:59:34.033Z,25.21
2023-05-11T13:02:18.213Z,24.97
2023-05-11T13:04:46.351Z,25.04
2023-05-11T13:07:23.800Z,24.89
2023-05-11T13:10:01.278Z,24.48
2023-05-11T13:12:32.018Z,24.27
2023-05-11T13:15:11.409Z,24.15
2023-05-11T13:17:40.267Z,24.08
2023-05-11T13:20:26.579Z,23.98
2023-05-11T13:23:04.014Z,23.74
2023-05-11T13:25:31.696Z,23.79
2023-05-11T13:27:58.558Z,23.57
2023-05-11T13:30:25.401Z,23.61
2023-05-11T13:32:52.120Z,23.57
2023-05-11T13:35:19.194Z,24.63
2023-05-11T13:37:47.058Z,24.33
2023-05-11T13:40:14.019Z,24.83
2023-05-11T13:42:43.049Z,24.63
2023-05-11T13:45:10.458Z,24.16
2023-05-11T13:47:37.681Z,24.28
2023-05-11T13:50:05.160Z,24.32
2023-05-11T13:52:31.934Z,24.73
2023-05-11T13:54:58.784Z,25.25
2023-05-11T13:57:25.651Z,25.53
2023-05-11T13:59:52.449Z,25.50
2023-05-11T14:02:19.545Z,24.99
2023-05-11T14:04:46.337Z,24.32
2023-05-11T14:07:14.292Z,24.46
2023-05-11T14:09:43.662Z,24.38
2023-05-11T14:12:10.492Z,23.91
2023-05-11T14:14:37.181Z,23.90
2023-05-11T14:17:04.128Z,24.05
2023-05-11T14:19:30.974Z,23.90
2023-05-11T14:21:57.860Z,23.67
2023-05-11T14:24:24.553Z,23.77
2023-05-11T14:26:51.338Z,24.48
2023-05-11T14:29:18.301Z,24.90
2023-05-11T14:31:46.374Z,24.43
2023-05-11T14:34:13.150Z,24.44
2023-05-11T14:36:40.385Z,24.20
2023-05-11T14:39:07.251Z,23.92
2023-05-11T14:41:33.955Z,24.02
2023-05-11T14:44:00.729Z,23.91
2023-05-11T14:46:27.982Z,23.90
2023-05-11T14:48:54.867Z,23.67
2023-05-11T14:51:21.610Z,23.59
2023-05-11T14:53:48.359Z,23.50
2023-05-11T14:56:15.158Z,23.26
2023-05-11T14:58:42.038Z,23.17
2023-05-11T15:01:08.861Z,23.22
2023-05-11T15:03:37.332Z,23.25
2023-05-11T15:06:04.261Z,23.43
2023-05-11T15:08:32.271Z,23.96
2023-05-11T15:10:59.201Z,24.06
2023-05-11T15:13:26.753Z,23.99
2023-05-11T15:15:53.841Z,24.16
2023-05-11T15:18:21.706Z,24.36
2023-05-11T15:20:48.787Z,24.26
2023-05-11T15:23:16.945Z,24.54
2023-05-11T15:25:44.789Z,24.75
2023-05-11T15:28:12.405Z,24.47
2023-05-11T15:30:39.217Z,24.83
2023-05-11T15:33:06.250Z,24.76
2023-05-11T15:35:37.202Z,25.16
2023-05-11T15:38:04.679Z,25.37
2023-05-11T15:40:32.355Z,25.19
2023-05-11T15:42:59.568Z,25.56
2023-05-11T15:45:27.123Z,25.72
2023-05-11T15:47:54.410Z,25.58
2023-05-11T15:50:22.379Z,26.51
2023-05-11T15:52:49.383Z,25.64
2023-05-11T15:55:16.316Z,25.72
2023-05-11T15:57:43.217Z,25.67
2023-05-11T16:00:10.994Z,25.94
2023-05-11T16:02:38.048Z,25.17
2023-05-11T16:05:05.174Z,25.34
2023-05-11T16:07:31.902Z,25.33
2023-05-11T16:09:58.759Z,25.09
2023-05-11T16:12:26.134Z,25.03
2023-05-11T16:14:53.059Z,24.77
2023-05-11T16:17:19.877Z,24.47
2023-05-11T16:19:46.645Z,24.09
2023-05-11T16:22:13.468Z,24.32
2023-05-11T16:24:40.176Z,23.81
2023-05-11T16:27:06.910Z,23.61
2023-05-11T16:29:33.756Z,23.51
2023-05-11T16:32:00.828Z,23.52
2023-05-11T16:34:27.732Z,23.32
2023-05-11T16:36:56.045Z,23.14
2023-05-11T16:39:23.969Z,22.93
2023-05-11T16:41:50.679Z,23.03
2023-05-11T16:44:17.582Z,22.80
2023-05-11T16:46:44.522Z,22.73
2023-05-11T16:49:11.508Z,22.58
2023-05-11T16:51:38.310Z,22.35
2023-05-11T16:54:05.120Z,22.44
2023-05-11T16:56:31.914Z,22.31
2023-05-11T16:58:59.010Z,22.28
2023-05-11T17:01:26.084Z,22.24
2023-05-11T17:03:52.990Z,22.18
2023-05-11T17:06:22.751Z,21.99
2023-05-11T17:08:50.116Z,21.99
2023-05-11T17:11:17.200Z,21.85
2023-05-11T17:13:43.899Z,21.84
2023-05-11T17:16:10.858Z,21.79
2023-05-11T17:18:37.727Z,21.61
2023-05-11T17:21:04.677Z,21.64
2023-05-11T17:23:31.591Z,21.57
2023-05-11T17:25:59.193Z,21.44
2023-05-11T17:28:26.981Z,21.42
2023-05-11T17:30:53.914Z,21.44
2023-05-11T17:33:20.819Z,21.40
2023-05-11T17:35:48.255Z,21.23
2023-05-11T17:38:15.001Z,21.15
2023-05-11T17:40:41.901Z,21.11
2023-05-11T17:43:08.710Z,21.05
2023-05-11T17:45:35.946Z,21.03
2023-05-11T17:48:02.883Z,21.02
2023-05-11T17:50:29.711Z,20.95
2023-05-11T17:52:56.559Z,20.95
2023-05-11T17:55:23.585Z,20.80
2023-05-11T17:57:51.669Z,20.74
2023-05-11T18:00:19.085Z,20.84
2023-05-11T18:02:48.663Z,20.74
2023-05-11T18:05:16.170Z,20.74
2023-05-11T18:07:42.989Z,20.64
2023-05-11T18:10:10.990Z,20.54
2023-05-11T18:12:37.901Z,20.45
2023-05-11T18:15:05.654Z,20.41
2023-05-11T18:17:33.070Z,20.36
2023-05-11T18:19:59.881Z,20.12
2023-05-11T18:22:27.343Z,20.14
2023-05-11T18:24:54.121Z,20.11
2023-05-11T18:27:20.874Z,19.94
2023-05-11T18:29:47.769Z,19.84
2023-05-11T18:32:14.599Z,19.73
2023-05-11T18:34:42.496Z,19.69
2023-05-11T18:37:09.568Z,19.63
2023-05-11T18:39:36.312Z,19.35
2023-05-11T18:42:03.761Z,19.41
2023-05-11T18:44:30.677Z,19.28
2023-05-11T18:46:58.539Z,19.29
2023-05-11T18:49:25.594Z,19.12
2023-05-11T18:51:52.407Z,19.00
2023-05-11T18:54:19.270Z,18.83
2023-05-11T18:56:46.160Z,18.73
2023-05-11T18:59:13.024Z,18.79
2023-05-11T19:01:47.619Z,18.67
2023-05-11T19:04:17.650Z,18.55
2023-05-11T19:06:44.687Z,18.50
2023-05-11T19:09:11.431Z,18.47
2023-05-11T19:11:38.395Z,18.47
2023-05-11T19:14:05.209Z,18.36
2023-05-11T19:16:35.982Z,18.34
2023-05-11T19:19:02.926Z,18.02
2023-05-11T19:21:29.808Z,17.89
2023-05-11T19:23:56.937Z,17.94
2023-05-11T19:26:23.817Z,17.91
2023-05-11T19:28:50.668Z,17.91
2023-05-11T19:31:17.461Z,17.83
2023-05-11T19:33:44.387Z,17.77
2023-05-11T19:36:11.268Z,17.82
2023-05-11T19:38:38.223Z,17.67
2023-05-11T19:41:05.195Z,17.59
2023-05-11T19:43:31.897Z,17.64
2023-05-11T19:45:58.965Z,17.65
2023-05-11T19:48:25.878Z,17.51
2023-05-11T19:50:52.736Z,17.41
2023-05-11T19:53:19.492Z,17.28
2023-05-11T19:55:48.095Z,17.32
2023-05-11T19:58:15.233Z,17.20
2023-05-11T20:00:42.413Z,17.25
2023-05-11T20:03:09.387Z,17.26
2023-05-11T20:05:36.710Z,17.39
2023-05-11T20:08:06.057Z,16.99
2023-05-11T20:10:33.519Z,16.87
2023-05-11T20:13:03.968Z,16.85
2023-05-11T20:15:31.396Z,16.75
2023-05-11T20:17:58.216Z,16.62
2023-05-11T20:20:25.297Z,16.57
2023-05-11T20:22:52.411Z,16.46
2023-05-11T20:25:19.314Z,16.49
2023-05-11T20:27:46.776Z,16.50
2023-05-11T20:30:14.544Z,16.34
2023-05-11T20:34:06.839Z,16.26
2023-05-11T20:35:28.251Z,16.33
2023-05-11T20:37:55.424Z,16.34
2023-05-11T20:40:22.223Z,16.44
2023-05-11T20:42:50.607Z,16.43
2023-05-11T20:45:18.962Z,16.45
2023-05-11T20:47:46.603Z,16.35
2023-05-11T20:50:15.388Z,16.45
2023-05-11T20:52:45.234Z,16.45
2023-05-11T20:55:14.069Z,16.41
2023-05-11T20:57:42.750Z,16.44
2023-05-11T21:00:11.630Z,16.30
2023-05-11T21:02:39.140Z,16.30
2023-05-11T21:05:07.364Z,16.45
2023-05-11T21:07:37.064Z,16.43
2023-05-11T21:10:06.484Z,16.35
2023-05-11T21:12:34.257Z,16.30
2023-05-11T21:15:01.794Z,16.48
2023-05-11T21:17:29.595Z,16.39
2023-05-11T21:19:56.736Z,16.41
2023-05-11T21:22:25.378Z,16.46
2023-05-11T21:24:52.856Z,16.45
2023-05-11T21:27:21.624Z,16.37
2023-05-11T21:29:51.228Z,16.41
2023-05-11T21:32:18.508Z,16.47
2023-05-11T21:34:45.831Z,16.26
2023-05-11T21:37:15.236Z,16.39
2023-05-11T21:39:44.177Z,16.39
2023-05-11T21:42:11.550Z,16.43
2023-05-11T21:44:40.010Z,16.34
2023-05-11T21:47:07.870Z,16.27
2023-05-11T21:49:37.043Z,16.21
2023-05-11T21:52:12.979Z,16.20
2023-05-11T21:54:41.337Z,16.11
2023-05-11T21:57:08.758Z,16.14
2023-05-11T21:59:37.792Z,16.20
2023-05-11T22:02:05.104Z,16.16
2023-05-11T22:04:34.809Z,16.21
2023-05-11T22:07:02.701Z,16.15
2023-05-11T22:09:34.230Z,16.12
2023-05-11T22:12:04.356Z,16.08
2023-05-11T22:14:31.556Z,15.91
2023-05-11T22:16:59.674Z,16.00
2023-05-11T22:19:29.337Z,15.96
2023-05-11T22:21:57.689Z,15.92
2023-05-11T22:24:28.206Z,15.86
2023-05-11T22:26:56.015Z,15.75
2023-05-11T22:29:23.454Z,15.80
2023-05-11T22:31:58.371Z,15.80
2023-05-11T22:34:25.885Z,15.72
2023-05-11T22:36:55.576Z,15.67
2023-05-11T22:39:24.177Z,15.63
2023-05-11T22:41:51.419Z,15.63
2023-05-11T22:44:19.871Z,15.54
2023-05-11T22:46:49.396Z,15.45
2023-05-11T22:49:17.426Z,15.36
2023-05-11T22:51:44.876Z,15.16
2023-05-11T22:54:16.124Z,15.23
2023-05-11T22:56:43.317Z,15.26
2023-05-11T22:59:10.902Z,15.28
2023-05-11T23:01:38.713Z,15.28
2023-05-11T23:04:06.674Z,15.53
2023-05-11T23:06:34.942Z,15.55
2023-05-11T23:09:02.116Z,15.53
2023-05-11T23:11:29.587Z,15.52
2023-05-11T23:13:57.037Z,15.46
2023-05-11T23:16:25.244Z,15.69
2023-05-11T23:18:53.047Z,15.55
2023-05-11T23:21:20.226Z,15.39
2023-05-11T23:23:49.698Z,15.48
2023-05-11T23:26:19.020Z,15.13
2023-05-11T23:28:46.377Z,15.14
2023-05-11T23:31:13.698Z,15.13
2023-05-11T23:33:41.965Z,14.91
2023-05-11T23:36:10.967Z,15.00
2023-05-11T23:38:41.725Z,15.14
2023-05-11T23:41:09.003Z,14.84
2023-05-11T23:43:38.045Z,14.73
2023-05-11T23:46:05.525Z,14.69
2023-05-11T23:48:32.514Z,14.64
2023-05-11T23:50:59.344Z,14.65
2023-05-11T23:53:26.106Z,14.52
2023-05-11T23:55:52.855Z,14.33
2023-05-11T23:58:19.619Z,14.39
